Time;durP1;ratioP1;P1;durP2;ratioP2;P2;SDS_P1;SDS_P2;PMS_P1;PMS_P2;Temp;Humidity;BMP_temperature;BMP_pressure;BME280_temperature;BME280_humidity;BME280_pressure;Samples;Min_cycle;Max_cycle;Signal;HPM_P1;HPM_P2
2024/01/04 00:01:38;;;;;;;;;;;;;;;18.16;41.36;98441.25;4449440;32;34837;-81
2024/01/04 00:04:05;;;;;;;;;;;;;;;18.45;40.66;98434.00;4450564;32;34201;-81
2024/01/04 00:06:33;;;;;;;;;;;;;;;18.50;40.92;98439.19;4450661;32;34494;-83
2024/01/04 00:09:00;;;;;;;;;;;;;;;18.41;40.96;98441.91;4451669;32;33471;-85
2024/01/04 00:11:27;;;;;;;;;;;;;;;18.18;41.40;98440.34;4450406;32;34829;-84
2024/01/04 00:13:54;;;;;;;;;;;;;;;18.06;41.51;98437.84;4451069;32;34729;-82
2024/01/04 00:16:22;;;;;;;;;;;;;;;18.35;41.06;98441.94;4455673;32;34267;-81
2024/01/04 00:18:49;;;;;;;;;;;;;;;18.81;40.05;98433.69;4440059;32;33318;-80
2024/01/04 00:21:17;;;;;;;;;;;;;;;17.58;42.35;98426.75;4453750;32;33979;-84
2024/01/04 00:23:44;;;;;;;;;;;;;;;17.67;42.50;98445.91;4452542;32;34285;-82
2024/01/04 00:26:11;;;;;;;;;;;;;;;18.08;41.67;98433.44;4454142;32;35130;-81
2024/01/04 00:28:39;;;;;;;;;;;;;;;18.20;41.36;98428.09;4452548;32;33244;-80
2024/01/04 00:31:07;;;;;;;;;;;;;;;18.21;41.52;98435.06;4453544;32;34683;-81
2024/01/04 00:33:37;;;;;;;;;;;;;;;17.41;42.80;98438.16;4439348;32;34239;-83
2024/01/04 00:36:05;;;;;;;;;;;;;;;17.47;43.00;98435.50;4451156;32;34272;-83
2024/01/04 00:38:32;;;;;;;;;;;;;;;17.51;43.00;98438.13;4447955;32;34354;-81
2024/01/04 00:41:01;;;;;;;;;;;;;;;17.49;42.88;98439.00;4452610;32;34570;-81
2024/01/04 00:43:28;;;;;;;;;;;;;;;17.35;43.29;98435.56;4450431;32;34620;-81
2024/01/04 00:45:55;;;;;;;;;;;;;;;18.07;41.81;98426.44;4451661;32;34213;-83
2024/01/04 00:48:23;;;;;;;;;;;;;;;18.43;40.96;98430.53;4453008;32;33457;-80
2024/01/04 00:50:50;;;;;;;;;;;;;;;18.46;40.80;98440.09;4451073;32;33909;-83
2024/01/04 00:53:17;;;;;;;;;;;;;;;17.91;42.01;98435.31;4439439;32;34763;-85
2024/01/04 00:55:45;;;;;;;;;;;;;;;17.93;42.17;98430.94;4453322;32;34488;-79
2024/01/04 00:58:12;;;;;;;;;;;;;;;17.38;43.01;98435.53;4434114;32;33314;-80
2024/01/04 01:00:40;;;;;;;;;;;;;;;17.34;43.31;98440.81;4453233;32;33783;-81
2024/01/04 01:03:08;;;;;;;;;;;;;;;17.91;42.04;98440.56;4453381;32;34399;-82
2024/01/04 01:05:35;;;;;;;;;;;;;;;17.53;42.73;98433.75;4452793;32;34948;-82
2024/01/04 01:08:03;;;;;;;;;;;;;;;18.16;41.59;98431.63;4436888;32;34683;-82
2024/01/04 01:10:32;;;;;;;;;;;;;;;17.61;42.58;98437.19;4450283;32;34160;-80
2024/01/04 01:12:59;;;;;;;;;;;;;;;17.58;42.79;98434.59;4453081;32;34818;-82
2024/01/04 01:15:27;;;;;;;;;;;;;;;17.66;42.81;98425.81;4453006;32;34247;-81
2024/01/04 01:17:55;;;;;;;;;;;;;;;17.94;41.96;98403.84;4436014;32;31982;-82
2024/01/04 01:20:22;;;;;;;;;;;;;;;17.66;42.52;98398.75;4453479;32;33882;-84
2024/01/04 01:22:49;;;;;;;;;;;;;;;17.61;42.70;98392.69;4453535;32;33937;-82
2024/01/04 01:25:17;;;;;;;;;;;;;;;17.74;42.57;98381.25;4451394;32;34216;-81
2024/01/04 01:27:44;;;;;;;;;;;;;;;17.84;42.28;98372.47;4457261;32;33582;-84
2024/01/04 01:30:12;;;;;;;;;;;;;;;17.88;42.01;98376.78;4437038;32;32673;-83
2024/01/04 01:32:40;;;;;;;;;;;;;;;17.71;42.35;98375.16;4453500;32;33844;-81
2024/01/04 01:35:08;;;;;;;;;;;;;;;17.93;41.96;98391.63;4452807;32;32774;-84
2024/01/04 01:37:37;;;;;;;;;;;;;;;17.87;41.93;98393.41;4453730;32;34148;-85
2024/01/04 01:40:06;;;;;;;;;;;;;;;18.01;41.67;98392.44;4452720;32;34274;-81
2024/01/04 01:42:33;;;;;;;;;;;;;;;17.78;42.18;98384.72;4451530;32;35007;-80
2024/01/04 01:45:01;;;;;;;;;;;;;;;18.23;41.22;98401.88;4454184;32;34105;-83
2024/01/04 01:47:30;;;;;;;;;;;;;;;18.22;40.83;98402.75;4457477;32;34151;-81
2024/01/04 01:49:57;;;;;;;;;;;;;;;17.88;41.39;98407.37;4433250;32;34037;-83
2024/01/04 01:52:24;;;;;;;;;;;;;;;17.82;41.79;98421.34;4453116;32;34864;-83
2024/01/04 01:54:52;;;;;;;;;;;;;;;17.49;42.47;98412.81;4451892;32;34130;-81
2024/01/04 01:57:19;;;;;;;;;;;;;;;17.59;42.37;98412.75;4455041;32;34600;-79
2024/01/04 01:59:46;;;;;;;;;;;;;;;17.82;41.92;98416.09;4452657;32;34421;-83
2024/01/04 02:02:14;;;;;;;;;;;;;;;17.96;41.59;98407.31;4438979;32;34054;-84
2024/01/04 02:04:42;;;;;;;;;;;;;;;17.81;41.61;98403.91;4432776;32;33312;-81
2024/01/04 02:07:09;;;;;;;;;;;;;;;17.77;41.55;98407.44;4452282;32;33991;-83
2024/01/04 02:09:37;;;;;;;;;;;;;;;17.59;41.92;98408.37;4433602;32;34947;-82
2024/01/04 02:12:07;;;;;;;;;;;;;;;17.67;41.97;98403.09;4431333;32;34231;-84
2024/01/04 02:14:35;;;;;;;;;;;;;;;17.64;42.01;98405.75;4452401;32;33468;-81
2024/01/04 02:17:02;;;;;;;;;;;;;;;17.55;42.16;98404.06;4452630;32;33835;-79
2024/01/04 02:19:30;;;;;;;;;;;;;;;17.75;41.73;98393.47;4453133;32;34648;-83
2024/01/04 02:21:57;;;;;;;;;;;;;;;17.49;42.03;98404.09;4455216;32;33563;-81
2024/01/04 02:24:25;;;;;;;;;;;;;;;17.10;42.90;98412.12;4438875;32;35196;-80
2024/01/04 02:26:52;;;;;;;;;;;;;;;17.40;42.40;98417.22;4453183;32;33089;-82
2024/01/04 02:29:20;;;;;;;;;;;;;;;17.30;42.46;98416.41;4452551;32;34840;-85
2024/01/04 02:31:48;;;;;;;;;;;;;;;17.15;42.93;98409.47;4430956;32;33909;-82
2024/01/04 02:34:15;;;;;;;;;;;;;;;17.13;43.09;98390.28;4453397;32;34162;-80
2024/01/04 02:36:43;;;;;;;;;;;;;;;16.93;43.33;98377.31;4453937;32;33547;-81
2024/01/04 02:39:11;;;;;;;;;;;;;;;16.97;43.23;98389.50;4452300;32;35030;-79
2024/01/04 02:41:39;;;;;;;;;;;;;;;16.86;43.47;98399.13;4453332;32;34974;-81
2024/01/04 02:44:06;;;;;;;;;;;;;;;16.96;43.31;98405.19;4437670;32;34316;-81
2024/01/04 02:46:36;;;;;;;;;;;;;;;17.16;42.75;98413.84;4452657;32;34015;-83
2024/01/04 02:49:04;;;;;;;;;;;;;;;17.35;42.27;98417.25;4452384;32;33742;-82
2024/01/04 02:51:31;;;;;;;;;;;;;;;16.95;42.84;98420.03;4454288;32;34723;-83
2024/01/04 02:53:59;;;;;;;;;;;;;;;17.40;41.93;98415.50;4454026;32;34296;-83
2024/01/04 02:56:26;;;;;;;;;;;;;;;17.50;41.61;98418.94;4454377;32;33159;-81
2024/01/04 02:58:56;;;;;;;;;;;;;;;17.21;42.50;98433.03;4438756;32;32405;-81
2024/01/04 03:01:23;;;;;;;;;;;;;;;17.21;42.59;98434.75;4452325;32;33726;-81
2024/01/04 03:03:55;;;;;;;;;;;;;;;16.93;43.09;98429.63;4435839;32;34834;-82
2024/01/04 03:06:27;;;;;;;;;;;;;;;16.82;43.56;98434.00;4435427;32;795353;-82
2024/01/04 03:08:54;;;;;;;;;;;;;;;16.87;43.36;98427.03;4430401;32;34884;-82
2024/01/04 03:11:22;;;;;;;;;;;;;;;16.75;43.61;98408.72;4452919;32;34201;-81
2024/01/04 03:13:49;;;;;;;;;;;;;;;17.06;43.13;98418.25;4452108;32;34535;-81
2024/01/04 03:16:18;;;;;;;;;;;;;;;16.59;43.67;98420.94;4447143;32;33456;-81
2024/01/04 03:18:46;;;;;;;;;;;;;;;16.90;43.37;98419.16;4455583;32;33970;-84
2024/01/04 03:21:14;;;;;;;;;;;;;;;16.78;43.53;98417.41;4425196;32;32571;-85
2024/01/04 03:23:41;;;;;;;;;;;;;;;16.46;44.31;98400.06;4449609;32;34962;-81
2024/01/04 03:26:09;;;;;;;;;;;;;;;16.39;44.54;98407.91;4458993;32;34066;-81
2024/01/04 03:28:36;;;;;;;;;;;;;;;16.32;44.74;98401.78;4456486;32;34219;-84
2024/01/04 03:31:03;;;;;;;;;;;;;;;16.68;44.25;98400.87;4452688;32;34388;-82
2024/01/04 03:33:31;;;;;;;;;;;;;;;16.94;43.77;98396.47;4453109;32;34618;-80
2024/01/04 03:35:58;;;;;;;;;;;;;;;17.05;43.46;98400.78;4455950;32;33665;-82
2024/01/04 03:38:26;;;;;;;;;;;;;;;17.01;43.31;98399.06;4450614;32;34270;-80
2024/01/04 03:40:53;;;;;;;;;;;;;;;16.85;43.55;98392.16;4445726;32;34291;-82
2024/01/04 03:43:20;;;;;;;;;;;;;;;16.98;43.61;98404.31;4450999;32;34231;-80
2024/01/04 03:45:48;;;;;;;;;;;;;;;17.21;42.88;98392.87;4451709;32;33290;-84
2024/01/04 03:48:15;;;;;;;;;;;;;;;16.93;43.24;98403.47;4458085;32;33974;-83
2024/01/04 03:50:43;;;;;;;;;;;;;;;16.79;43.63;98397.38;4453611;32;34647;-82
2024/01/04 03:53:10;;;;;;;;;;;;;;;16.68;43.84;98385.19;4460086;32;34597;-82
2024/01/04 03:55:37;;;;;;;;;;;;;;;16.79;43.66;98382.56;4455825;32;33378;-79
2024/01/04 03:58:05;;;;;;;;;;;;;;;17.01;43.26;98388.59;4457675;32;34036;-82
2024/01/04 04:00:32;;;;;;;;;;;;;;;16.96;43.34;98374.69;4457070;32;33982;-83
2024/01/04 04:02:59;;;;;;;;;;;;;;;17.02;43.03;98376.41;4460340;32;33884;-80
2024/01/04 04:05:27;;;;;;;;;;;;;;;16.75;43.57;98375.59;4454032;32;33268;-82
2024/01/04 04:07:54;;;;;;;;;;;;;;;17.09;42.63;98381.62;4440444;32;33525;-84
2024/01/04 04:10:22;;;;;;;;;;;;;;;16.44;43.96;98367.81;4454235;32;34815;-80
2024/01/04 04:12:49;;;;;;;;;;;;;;;16.59;43.81;98374.78;4453914;32;33927;-83
2024/01/04 04:15:17;;;;;;;;;;;;;;;16.59;43.76;98395.69;4462461;32;33629;-82
2024/01/04 04:17:44;;;;;;;;;;;;;;;16.44;44.13;98391.34;4457236;32;33884;-83
2024/01/04 04:20:12;;;;;;;;;;;;;;;16.55;43.87;98399.16;4448645;32;33551;-81
2024/01/04 04:22:39;;;;;;;;;;;;;;;16.41;43.76;98400.94;4458529;32;34614;-81
2024/01/04 04:25:06;;;;;;;;;;;;;;;16.86;43.02;98406.97;4444161;32;33643;-81
2024/01/04 04:27:34;;;;;;;;;;;;;;;16.28;44.07;98403.56;4448225;32;34070;-84
2024/01/04 04:30:01;;;;;;;;;;;;;;;16.29;44.00;98412.25;4443350;32;34816;-82
2024/01/04 04:32:31;;;;;;;;;;;;;;;16.17;44.45;98423.59;4454480;32;34246;-79
2024/01/04 04:34:59;;;;;;;;;;;;;;;16.06;44.67;98420.97;4457580;32;34272;-81
2024/01/04 04:37:26;;;;;;;;;;;;;;;16.07;44.75;98419.22;4458698;32;34003;-82
2024/01/04 04:39:53;;;;;;;;;;;;;;;16.04;44.82;98416.63;4454674;32;34185;-82
2024/01/04 04:42:21;;;;;;;;;;;;;;;16.58;43.76;98425.31;4454616;32;35182;-82
2024/01/04 04:44:48;;;;;;;;;;;;;;;16.36;44.30;98418.34;4441455;32;32891;-81
2024/01/04 04:47:15;;;;;;;;;;;;;;;16.05;45.02;98423.56;4452214;32;34050;-82
2024/01/04 04:49:43;;;;;;;;;;;;;;;16.31;44.58;98421.84;4453095;32;34832;-83
2024/01/04 04:52:10;;;;;;;;;;;;;;;16.43;44.13;98414.88;4461012;32;34183;-83
2024/01/04 04:54:38;;;;;;;;;;;;;;;16.22;44.50;98407.91;4456001;32;34032;-83
2024/01/04 04:57:05;;;;;;;;;;;;;;;16.12;44.77;98399.19;4459407;32;34603;-81
2024/01/04 04:59:32;;;;;;;;;;;;;;;16.17;44.79;98409.63;4451429;32;33988;-80
2024/01/04 05:02:00;;;;;;;;;;;;;;;16.16;44.81;98405.31;4453038;32;34561;-82
2024/01/04 05:04:27;;;;;;;;;;;;;;;16.11;44.92;98403.56;4446858;32;33448;-80
2024/01/04 05:06:54;;;;;;;;;;;;;;;16.20;44.65;98407.91;4445763;32;34003;-79
2024/01/04 05:09:22;;;;;;;;;;;;;;;16.21;44.75;98403.56;4449134;32;34190;-81
2024/01/04 05:11:49;;;;;;;;;;;;;;;16.04;45.01;98396.59;4440984;32;32472;-83
2024/01/04 05:14:17;;;;;;;;;;;;;;;16.26;44.55;98402.69;4453951;32;34218;-82
2024/01/04 05:16:44;;;;;;;;;;;;;;;16.52;44.01;98404.41;4453088;32;34220;-85
2024/01/04 05:19:12;;;;;;;;;;;;;;;16.33;44.20;98402.69;4453688;32;34223;-82
2024/01/04 05:21:39;;;;;;;;;;;;;;;16.42;43.99;98402.69;4442181;32;34540;-82
2024/01/04 05:24:07;;;;;;;;;;;;;;;16.36;44.12;98402.66;4453743;32;33922;-81
2024/01/04 05:26:34;;;;;;;;;;;;;;;16.64;43.62;98404.38;4452923;32;35061;-81
2024/01/04 05:29:02;;;;;;;;;;;;;;;16.50;43.81;98412.25;4453936;32;34353;-82
2024/01/04 05:31:29;;;;;;;;;;;;;;;16.46;44.10;98409.66;4452685;32;33872;-80
2024/01/04 05:33:57;;;;;;;;;;;;;;;16.19;44.67;98416.63;4453678;32;33640;-80
2024/01/04 05:36:24;;;;;;;;;;;;;;;16.24;44.78;98420.09;4447006;32;34870;-81
2024/01/04 05:38:52;;;;;;;;;;;;;;;16.25;44.64;98424.47;4452829;32;33839;-83
2024/01/04 05:41:19;;;;;;;;;;;;;;;16.34;44.52;98426.22;4442448;32;33809;-85
2024/01/04 05:43:47;;;;;;;;;;;;;;;16.92;43.27;98430.50;4453375;32;33896;-81
2024/01/04 05:46:16;;;;;;;;;;;;;;;16.76;43.00;98439.22;4454034;32;33706;-80
2024/01/04 05:48:43;;;;;;;;;;;;;;;16.63;43.22;98433.13;4456494;32;33956;-81
2024/01/04 05:51:10;;;;;;;;;;;;;;;16.11;44.31;98444.50;4458916;32;34514;-82
2024/01/04 05:53:38;;;;;;;;;;;;;;;16.06;44.57;98448.84;4443784;32;33638;-85
2024/01/04 05:56:05;;;;;;;;;;;;;;;16.22;44.42;98447.97;4455123;32;33843;-85
2024/01/04 05:58:33;;;;;;;;;;;;;;;16.57;43.67;98440.97;4458083;32;33949;-80
2024/01/04 06:01:00;;;;;;;;;;;;;;;16.89;43.03;98440.97;4456329;32;34022;-81
2024/01/04 06:03:28;;;;;;;;;;;;;;;16.74;43.24;98446.19;4460550;32;33649;-85
2024/01/04 06:05:55;;;;;;;;;;;;;;;16.55;43.68;98446.22;4437498;32;34289;-79
2024/01/04 06:08:22;;;;;;;;;;;;;;;16.81;42.97;98447.94;4457379;32;33906;-84
2024/01/04 06:10:50;;;;;;;;;;;;;;;16.44;43.72;98450.59;4462086;32;35072;-84
2024/01/04 06:13:18;;;;;;;;;;;;;;;16.06;44.25;98454.06;4459025;32;34354;-83
2024/01/04 06:15:46;;;;;;;;;;;;;;;16.19;44.33;98447.13;4448368;32;34050;-80
2024/01/04 06:18:14;;;;;;;;;;;;;;;16.88;42.41;98449.66;4454672;32;34081;-82
2024/01/04 06:20:41;;;;;;;;;;;;;;;16.73;42.90;98447.94;4452028;32;34095;-82
2024/01/04 06:23:08;;;;;;;;;;;;;;;16.48;43.41;98460.19;4457639;32;34123;-83
2024/01/04 06:25:36;;;;;;;;;;;;;;;16.29;43.79;98454.94;4436609;32;33910;-81
2024/01/04 06:28:03;;;;;;;;;;;;;;;16.35;43.77;98463.66;4453148;32;33507;-84
2024/01/04 06:30:33;;;;;;;;;;;;;;;16.38;43.63;98458.41;4446647;32;33800;-80
2024/01/04 06:33:01;;;;;;;;;;;;;;;16.32;43.84;98454.06;4449276;32;33315;-79
2024/01/04 06:35:29;;;;;;;;;;;;;;;16.20;43.85;98459.28;4452886;32;34031;-80
2024/01/04 06:37:56;;;;;;;;;;;;;;;16.16;44.09;98455.78;4453853;32;33025;-84
2024/01/04 06:40:23;;;;;;;;;;;;;;;16.29;44.01;98459.31;4450338;32;34505;-80
2024/01/04 06:42:55;;;;;;;;;;;;;;;16.03;44.35;98469.72;4452060;32;33382;-83
2024/01/04 06:45:22;;;;;;;;;;;;;;;16.62;42.55;98474.09;4453077;32;34970;-79
2024/01/04 06:47:50;;;;;;;;;;;;;;;16.43;42.44;98477.59;4452225;32;34346;-80
2024/01/04 06:50:19;;;;;;;;;;;;;;;16.38;42.60;98484.53;4451366;32;34199;-79
2024/01/04 06:52:47;;;;;;;;;;;;;;;16.24;43.03;98481.94;4450285;32;33458;-84
2024/01/04 06:55:14;;;;;;;;;;;;;;;15.89;43.42;98496.66;4435447;32;33986;-79
2024/01/04 06:57:42;;;;;;;;;;;;;;;15.89;43.83;98496.66;4450761;32;34846;-83
2024/01/04 07:00:09;;;;;;;;;;;;;;;16.09;43.10;98498.47;4452964;32;33713;-82
2024/01/04 07:02:38;;;;;;;;;;;;;;;16.25;42.71;98500.22;4449956;32;34273;-80
2024/01/04 07:05:06;;;;;;;;;;;;;;;16.07;43.08;98500.19;4451366;32;34384;-78
2024/01/04 07:07:34;;;;;;;;;;;;;;;15.92;43.43;98486.25;4453359;32;34122;-84
2024/01/04 07:10:01;;;;;;;;;;;;;;;15.84;43.72;98508.88;4454893;32;34963;-80
2024/01/04 07:12:30;;;;;;;;;;;;;;;16.21;43.20;98498.50;4454580;32;34208;-82
2024/01/04 07:14:57;;;;;;;;;;;;;;;16.42;42.65;98496.78;4452981;32;33788;-82
2024/01/04 07:17:25;;;;;;;;;;;;;;;16.14;42.96;98501.94;4453963;32;34901;-83
2024/01/04 07:19:52;;;;;;;;;;;;;;;16.13;42.98;98500.22;4452727;32;35269;-81
2024/01/04 07:22:20;;;;;;;;;;;;;;;15.98;43.34;98497.59;4451667;32;33460;-82
2024/01/04 07:24:47;;;;;;;;;;;;;;;16.39;42.53;98496.75;4425140;32;33966;-84
2024/01/04 07:27:15;;;;;;;;;;;;;;;16.47;42.25;98497.63;4450788;32;34139;-84
2024/01/04 07:29:42;;;;;;;;;;;;;;;16.35;42.62;98489.78;4455664;32;34125;-82
2024/01/04 07:32:10;;;;;;;;;;;;;;;16.58;42.17;98497.63;4456037;32;33685;-82
2024/01/04 07:34:37;;;;;;;;;;;;;;;16.59;41.96;98488.91;4454903;32;34066;-80
2024/01/04 07:37:05;;;;;;;;;;;;;;;16.41;42.34;98489.78;4445987;32;34172;-83
2024/01/04 07:39:33;;;;;;;;;;;;;;;16.31;42.59;98492.37;4451274;32;34678;-79
2024/01/04 07:42:00;;;;;;;;;;;;;;;16.36;42.46;98487.19;4435142;32;31927;-82
2024/01/04 07:44:28;;;;;;;;;;;;;;;15.84;55.87;98503.62;4450510;32;34226;-85
2024/01/04 07:46:55;;;;;;;;;;;;;;;14.72;60.56;98501.31;4453279;32;33936;-82
2024/01/04 07:49:22;;;;;;;;;;;;;;;13.94;58.62;98498.84;4452910;32;34453;-79
2024/01/04 07:51:50;;;;;;;;;;;;;;;15.00;54.29;98496.25;4452744;32;33916;-82
2024/01/04 07:54:19;;;;;;;;;;;;;;;15.29;51.26;98498.16;4452135;32;35017;-82
2024/01/04 07:56:46;;;;;;;;;;;;;;;15.02;49.37;98499.75;4451346;32;34634;-82
2024/01/04 07:59:14;;;;;;;;;;;;;;;16.21;44.47;98484.56;4451224;32;34302;-81
2024/01/04 08:01:41;;;;;;;;;;;;;;;15.84;47.24;98493.19;4452285;32;33563;-84
2024/01/04 08:04:09;;;;;;;;;;;;;;;16.23;45.33;98485.44;4437404;32;34584;-84
2024/01/04 08:06:36;;;;;;;;;;;;;;;16.27;44.90;98493.25;4436459;32;33967;-85
2024/01/04 08:09:04;;;;;;;;;;;;;;;16.43;44.58;98482.81;4453945;32;34555;-81
2024/01/04 08:11:31;;;;;;;;;;;;;;;15.65;54.68;98491.37;4460092;32;34373;-82
2024/01/04 08:13:59;;;;;;;;;;;;;;;16.17;50.00;98490.63;4453232;32;33996;-82
2024/01/04 08:16:26;;;;;;;;;;;;;;;16.61;45.67;98480.22;4457786;32;35041;-82
2024/01/04 08:18:53;;;;;;;;;;;;;;;16.51;44.96;98481.06;4453073;32;34534;-80
2024/01/04 08:21:21;;;;;;;;;;;;;;;16.75;46.53;98487.19;4454382;32;32983;-82
2024/01/04 08:23:50;;;;;;;;;;;;;;;16.84;49.83;98495.00;4453131;32;34856;-80
2024/01/04 08:26:17;;;;;;;;;;;;;;;16.64;48.60;98490.66;4440636;32;33931;-82
2024/01/04 08:28:44;;;;;;;;;;;;;;;17.13;47.52;98491.47;4441385;32;33859;-80
2024/01/04 08:31:12;;;;;;;;;;;;;;;17.58;41.72;98484.34;4457921;32;34263;-80
2024/01/04 08:33:39;;;;;;;;;;;;;;;17.94;41.15;98487.66;4455905;32;34548;-81
2024/01/04 08:36:07;;;;;;;;;;;;;;;18.10;39.94;98489.34;4454296;32;34302;-81
2024/01/04 08:38:38;;;;;;;;;;;;;;;18.67;37.56;98492.37;4456106;32;34477;-80
2024/01/04 08:41:06;;;;;;;;;;;;;;;18.31;38.29;98495.28;4457380;32;32036;-81
2024/01/04 08:43:33;;;;;;;;;;;;;;;18.31;38.51;98492.66;4455259;32;33881;-78
2024/01/04 08:46:01;;;;;;;;;;;;;;;17.83;38.54;98493.81;4455549;32;34459;-78
2024/01/04 08:48:29;;;;;;;;;;;;;;;18.27;38.70;98492.72;4455454;32;34405;-79
2024/01/04 08:50:57;;;;;;;;;;;;;;;18.03;40.78;98492.87;4452861;32;34125;-84
2024/01/04 08:53:24;;;;;;;;;;;;;;;19.00;35.80;98492.97;4453672;32;34691;-81
2024/01/04 08:55:52;;;;;;;;;;;;;;;19.10;35.84;98498.13;4453162;32;34725;-79
2024/01/04 08:58:19;;;;;;;;;;;;;;;19.26;35.06;98504.97;4455325;32;34410;-79
2024/01/04 09:00:46;;;;;;;;;;;;;;;19.10;35.15;98508.63;4457742;32;33302;-82
2024/01/04 09:03:17;;;;;;;;;;;;;;;19.44;34.53;98519.62;4454624;32;34272;-82
2024/01/04 09:05:44;;;;;;;;;;;;;;;19.25;34.70;98516.34;4453381;32;33919;-79
2024/01/04 09:08:12;;;;;;;;;;;;;;;19.37;34.89;98513.59;4449575;32;34414;-80
2024/01/04 09:10:40;;;;;;;;;;;;;;;19.39;34.48;98519.69;4452663;32;33582;-79
2024/01/04 09:13:07;;;;;;;;;;;;;;;19.08;35.64;98513.00;4455205;32;34846;-80
2024/01/04 09:15:35;;;;;;;;;;;;;;;19.21;34.53;98512.00;4453777;32;34268;-83
2024/01/04 09:18:02;;;;;;;;;;;;;;;18.70;34.36;98506.31;4457156;32;34427;-81
2024/01/04 09:20:30;;;;;;;;;;;;;;;18.62;34.16;98519.50;4461609;32;33686;-82
2024/01/04 09:22:57;;;;;;;;;;;;;;;19.05;33.87;98516.53;4453811;32;34780;-80
2024/01/04 09:25:24;;;;;;;;;;;;;;;18.92;33.14;98507.91;4456579;32;34827;-81
2024/01/04 09:27:55;;;;;;;;;;;;;;;18.72;35.42;98510.69;4454640;32;35186;-79
2024/01/04 09:30:22;;;;;;;;;;;;;;;18.78;33.44;98509.78;4461840;32;33170;-79
2024/01/04 09:32:50;;;;;;;;;;;;;;;18.66;33.77;98506.38;4453665;32;33751;-82
2024/01/04 09:35:21;;;;;;;;;;;;;;;17.98;35.78;98508.63;4457271;32;34101;-80
2024/01/04 09:37:51;;;;;;;;;;;;;;;18.90;33.53;98503.56;4454947;32;34177;-83
2024/01/04 09:40:21;;;;;;;;;;;;;;;18.50;34.20;98504.75;4448990;32;34454;-80
2024/01/04 09:42:51;;;;;;;;;;;;;;;18.88;33.60;98500.97;4435155;32;33974;-79
2024/01/04 09:45:19;;;;;;;;;;;;;;;19.03;33.09;98508.69;4437311;32;34983;-80
2024/01/04 09:47:46;;;;;;;;;;;;;;;18.85;33.63;98501.88;4437133;32;34322;-83
2024/01/04 09:50:14;;;;;;;;;;;;;;;18.83;33.96;98502.75;4437446;32;34025;-80
2024/01/04 09:52:45;;;;;;;;;;;;;;;18.86;33.13;98503.59;4440063;32;34980;-81
2024/01/04 09:55:12;;;;;;;;;;;;;;;19.00;32.81;98492.09;4449299;32;34084;-81
2024/01/04 09:57:41;;;;;;;;;;;;;;;19.05;32.70;98499.03;4440068;32;34585;-82
2024/01/04 10:00:09;;;;;;;;;;;;;;;19.04;33.01;98497.31;4445777;32;34307;-82
2024/01/04 10:02:40;;;;;;;;;;;;;;;19.37;32.51;98510.06;4449361;32;33991;-80
2024/01/04 10:05:18;;;;;;;;;;;;;;;19.29;31.92;98507.53;4452814;32;33565;-82
2024/01/04 10:07:54;;;;;;;;;;;;;;;19.29;32.50;98515.41;4455873;32;35004;-82
2024/01/04 10:10:22;;;;;;;;;;;;;;;19.54;32.39;98518.62;4439414;32;33670;-83
2024/01/04 10:12:49;;;;;;;;;;;;;;;19.84;32.38;98527.06;4439489;32;34419;-83
2024/01/04 10:15:17;;;;;;;;;;;;;;;20.03;31.06;98511.91;4453675;32;34146;-81
2024/01/04 10:17:46;;;;;;;;;;;;;;;19.72;31.24;98517.56;4453442;32;34671;-81
2024/01/04 10:20:14;;;;;;;;;;;;;;;19.73;31.35;98529.81;4424496;32;33736;-83
2024/01/04 10:22:42;;;;;;;;;;;;;;;19.39;32.13;98530.19;4443302;32;34784;-81
2024/01/04 10:25:11;;;;;;;;;;;;;;;19.56;31.19;98529.13;4444574;32;34935;-83
2024/01/04 10:27:39;;;;;;;;;;;;;;;19.18;32.14;98530.41;4450359;32;34461;-83
2024/01/04 10:30:06;;;;;;;;;;;;;;;19.69;32.10;98543.84;4441289;32;33540;-81
2024/01/04 10:32:34;;;;;;;;;;;;;;;19.28;31.16;98541.66;4436470;32;33793;-81
2024/01/04 10:35:03;;;;;;;;;;;;;;;19.57;31.11;98544.00;4439650;32;34865;-80
2024/01/04 10:37:30;;;;;;;;;;;;;;;19.79;31.25;98540.22;4446228;32;34223;-80
2024/01/04 10:39:59;;;;;;;;;;;;;;;19.65;30.63;98535.13;4433370;32;32810;-84
2024/01/04 10:42:26;;;;;;;;;;;;;;;19.48;31.33;98538.84;4436871;32;34725;-82
2024/01/04 10:44:54;;;;;;;;;;;;;;;19.73;31.54;98534.19;4435495;32;34751;-82
2024/01/04 10:47:21;;;;;;;;;;;;;;;19.71;30.81;98546.47;4439712;32;34516;-81
2024/01/04 10:49:49;;;;;;;;;;;;;;;19.27;31.56;98535.56;4439320;32;33713;-82
2024/01/04 10:52:17;;;;;;;;;;;;;;;19.24;31.99;98525.09;4451175;32;34194;-82
2024/01/04 10:54:45;;;;;;;;;;;;;;;19.21;32.00;98531.25;4448608;32;34046;-81
2024/01/04 10:57:12;;;;;;;;;;;;;;;19.04;32.26;98528.81;4448328;32;35266;-81
2024/01/04 10:59:43;;;;;;;;;;;;;;;19.42;32.01;98524.88;4450959;32;33550;-81
2024/01/04 11:02:13;;;;;;;;;;;;;;;19.17;32.20;98510.31;4444723;32;34324;-80
2024/01/04 11:04:40;;;;;;;;;;;;;;;18.95;32.03;98497.41;4444033;32;34121;-81
2024/01/04 11:07:08;;;;;;;;;;;;;;;18.44;34.21;98502.19;4434945;32;34265;-81
2024/01/04 11:09:36;;;;;;;;;;;;;;;19.26;32.36;98499.72;4449836;32;33494;-80
2024/01/04 11:12:03;;;;;;;;;;;;;;;19.60;32.17;98501.91;4452723;32;33935;-80
2024/01/04 11:14:31;;;;;;;;;;;;;;;19.72;31.83;98508.81;4445539;32;35017;-80
2024/01/04 11:16:58;;;;;;;;;;;;;;;19.61;32.30;98508.94;4449824;32;35065;-83
2024/01/04 11:19:44;;;;;;;;;;;;;;;19.67;32.05;98507.97;4447698;32;33651;-81
2024/01/04 11:22:12;;;;;;;;;;;;;;;19.84;32.17;98504.28;4440538;32;33984;-81
2024/01/04 11:24:42;;;;;;;;;;;;;;;19.56;33.54;98515.97;4436452;32;32888;-82
2024/01/04 11:27:13;;;;;;;;;;;;;;;19.53;32.23;98506.41;4446784;32;34574;-83
2024/01/04 11:29:41;;;;;;;;;;;;;;;19.35;32.41;98507.44;4453195;32;34006;-81
2024/01/04 11:32:09;;;;;;;;;;;;;;;19.44;32.23;98517.84;4452688;32;33921;-83
2024/01/04 11:34:38;;;;;;;;;;;;;;;19.14;33.27;98515.56;4433763;32;34155;-82
2024/01/04 11:37:21;;;;;;;;;;;;;;;19.45;32.30;98518.72;4447290;32;34547;-82
2024/01/04 11:39:58;;;;;;;;;;;;;;;19.26;33.38;98510.22;4446852;32;33673;-84
2024/01/04 11:42:39;;;;;;;;;;;;;;;19.88;32.22;98518.25;4447514;32;34196;-82
2024/01/04 11:45:17;;;;;;;;;;;;;;;19.56;32.65;98500.22;4446098;32;34758;-82
2024/01/04 11:47:45;;;;;;;;;;;;;;;19.07;33.48;98512.16;4452951;32;34421;-80
2024/01/04 11:50:25;;;;;;;;;;;;;;;18.67;34.66;98515.97;4443265;32;33228;-82
2024/01/04 11:53:04;;;;;;;;;;;;;;;19.31;32.93;98518.03;4434459;32;33994;-82
2024/01/04 11:55:40;;;;;;;;;;;;;;;19.02;33.29;98520.06;4431149;32;33916;-82
2024/01/04 11:58:28;;;;;;;;;;;;;;;18.43;34.05;98514.44;4450778;32;34154;-83
2024/01/04 12:00:57;;;;;;;;;;;;;;;18.46;34.00;98508.28;4449885;32;33412;-81
2024/01/04 12:03:28;;;;;;;;;;;;;;;18.18;35.08;98502.38;4448243;32;34208;-80
2024/01/04 12:05:55;;;;;;;;;;;;;;;18.31;34.75;98513.63;4438119;32;34014;-82
2024/01/04 12:08:27;;;;;;;;;;;;;;;18.35;34.65;98523.22;4434484;32;34760;-83
2024/01/04 12:10:56;;;;;;;;;;;;;;;18.38;34.58;98525.81;4436853;32;34223;-81
2024/01/04 12:13:24;;;;;;;;;;;;;;;18.24;34.89;98524.16;4437604;32;33599;-81
2024/01/04 12:15:51;;;;;;;;;;;;;;;18.70;34.08;98532.56;4447185;32;33857;-83
2024/01/04 12:18:21;;;;;;;;;;;;;;;18.17;34.76;98548.66;4451117;32;35234;-83
2024/01/04 12:20:54;;;;;;;;;;;;;;;18.65;34.02;98554.44;4439331;32;33134;-83
2024/01/04 12:23:38;;;;;;;;;;;;;;;18.50;33.32;98561.56;4442071;32;33963;-81
2024/01/04 12:26:06;;;;;;;;;;;;;;;18.30;34.32;98561.72;4439291;32;34171;-80
2024/01/04 12:28:33;;;;;;;;;;;;;;;17.93;35.06;98554.06;4437332;32;34319;-82
2024/01/04 12:31:02;;;;;;;;;;;;;;;17.83;35.27;98568.91;4450865;32;33340;-80
2024/01/04 12:33:30;;;;;;;;;;;;;;;17.53;36.16;98572.50;4446327;32;34282;-81
2024/01/04 12:35:59;;;;;;;;;;;;;;;17.56;36.60;98569.88;4434120;32;33379;-83
2024/01/04 12:38:34;;;;;;;;;;;;;;;18.27;35.85;98566.09;4454396;32;33648;-81
2024/01/04 12:41:01;;;;;;;;;;;;;;;18.29;36.09;98573.94;4437302;32;33571;-83
2024/01/04 12:43:29;;;;;;;;;;;;;;;18.52;36.07;98575.53;4448964;32;34904;-82
2024/01/04 12:46:05;;;;;;;;;;;;;;;18.28;35.86;98562.59;4449508;32;34104;-80
2024/01/04 12:48:34;;;;;;;;;;;;;;;18.30;36.02;98569.59;4445693;32;34170;-83
2024/01/04 12:51:08;;;;;;;;;;;;;;;18.19;35.38;98546.03;4435751;32;33166;-83
2024/01/04 12:53:35;;;;;;;;;;;;;;;18.49;34.90;98555.47;4441147;32;34038;-82